sensor_id;sensor_type;location;lat;lon;timestamp;temperature;humidity
78988;DHT22;68389;44.716;37.756;2023-04-06T00:00:03;22.41;55.95
78988;DHT22;68389;44.716;37.756;2023-04-06T00:01:05;22.42;56.00
78988;DHT22;68389;44.716;37.756;2023-04-06T00:02:07;22.42;56.06
78988;DHT22;68389;44.716;37.756;2023-04-06T00:03:08;22.46;56.26
78988;DHT22;68389;44.716;37.756;2023-04-06T00:04:09;22.48;56.64
78988;DHT22;68389;44.716;37.756;2023-04-06T00:05:10;22.49;56.30
78988;DHT22;68389;44.716;37.756;2023-04-06T00:06:12;22.50;56.52
78988;DHT22;68389;44.716;37.756;2023-04-06T00:07:13;22.51;56.33
78988;DHT22;68389;44.716;37.756;2023-04-06T00:08:14;22.52;56.30
78988;DHT22;68389;44.716;37.756;2023-04-06T00:09:16;22.52;56.00
78988;DHT22;68389;44.716;37.756;2023-04-06T00:10:17;22.52;55.98
78988;DHT22;68389;44.716;37.756;2023-04-06T00:11:18;22.52;56.12
78988;DHT22;68389;44.716;37.756;2023-04-06T00:12:20;22.53;56.00
78988;DHT22;68389;44.716;37.756;2023-04-06T00:13:22;22.51;56.08
78988;DHT22;68389;44.716;37.756;2023-04-06T00:14:23;22.52;56.04
78988;DHT22;68389;44.716;37.756;2023-04-06T00:15:25;22.53;55.83
78988;DHT22;68389;44.716;37.756;2023-04-06T00:16:26;22.52;55.87
78988;DHT22;68389;44.716;37.756;2023-04-06T00:17:28;22.53;56.05
78988;DHT22;68389;44.716;37.756;2023-04-06T00:18:29;22.52;56.22
78988;DHT22;68389;44.716;37.756;2023-04-06T00:19:31;22.51;56.00
78988;DHT22;68389;44.716;37.756;2023-04-06T00:20:32;22.51;56.00
78988;DHT22;68389;44.716;37.756;2023-04-06T00:21:33;22.52;56.08
78988;DHT22;68389;44.716;37.756;2023-04-06T00:22:34;22.52;56.10
78988;DHT22;68389;44.716;37.756;2023-04-06T00:23:36;22.50;55.91
78988;DHT22;68389;44.716;37.756;2023-04-06T00:24:37;22.52;56.04
78988;DHT22;68389;44.716;37.756;2023-04-06T00:25:39;22.51;56.10
78988;DHT22;68389;44.716;37.756;2023-04-06T00:26:40;22.51;56.07
78988;DHT22;68389;44.716;37.756;2023-04-06T00:27:41;22.52;56.05
78988;DHT22;68389;44.716;37.756;2023-04-06T00:28:43;22.51;56.04
78988;DHT22;68389;44.716;37.756;2023-04-06T00:29:44;22.51;56.05
78988;DHT22;68389;44.716;37.756;2023-04-06T00:30:46;22.50;56.16
78988;DHT22;68389;44.716;37.756;2023-04-06T00:31:47;22.52;56.16
78988;DHT22;68389;44.716;37.756;2023-04-06T00:32:49;22.52;56.10
78988;DHT22;68389;44.716;37.756;2023-04-06T00:33:51;22.53;55.90
78988;DHT22;68389;44.716;37.756;2023-04-06T00:34:52;22.51;55.84
78988;DHT22;68389;44.716;37.756;2023-04-06T00:35:53;22.52;55.93
78988;DHT22;68389;44.716;37.756;2023-04-06T00:36:54;22.51;55.85
78988;DHT22;68389;44.716;37.756;2023-04-06T00:37:56;22.50;56.03
78988;DHT22;68389;44.716;37.756;2023-04-06T00:38:57;22.50;55.74
78988;DHT22;68389;44.716;37.756;2023-04-06T00:39:58;22.49;56.01
78988;DHT22;68389;44.716;37.756;2023-04-06T00:41:00;22.52;55.90
78988;DHT22;68389;44.716;37.756;2023-04-06T00:42:10;22.50;55.90
78988;DHT22;68389;44.716;37.756;2023-04-06T00:43:13;22.50;55.68
78988;DHT22;68389;44.716;37.756;2023-04-06T00:44:15;22.49;55.90
78988;DHT22;68389;44.716;37.756;2023-04-06T00:45:16;22.50;55.81
78988;DHT22;68389;44.716;37.756;2023-04-06T00:46:18;22.49;55.97
78988;DHT22;68389;44.716;37.756;2023-04-06T00:47:19;22.49;56.00
78988;DHT22;68389;44.716;37.756;2023-04-06T00:48:21;22.48;55.85
78988;DHT22;68389;44.716;37.756;2023-04-06T00:49:22;22.48;55.87
78988;DHT22;68389;44.716;37.756;2023-04-06T00:50:23;22.48;55.72
78988;DHT22;68389;44.716;37.756;2023-04-06T00:51:25;22.48;55.84
78988;DHT22;68389;44.716;37.756;2023-04-06T00:52:27;22.47;55.81
78988;DHT22;68389;44.716;37.756;2023-04-06T00:53:28;22.48;55.94
78988;DHT22;68389;44.716;37.756;2023-04-06T00:54:30;22.47;55.71
78988;DHT22;68389;44.716;37.756;2023-04-06T00:55:31;22.48;55.76
78988;DHT22;68389;44.716;37.756;2023-04-06T00:56:33;22.49;55.73
78988;DHT22;68389;44.716;37.756;2023-04-06T00:57:34;22.48;55.98
78988;DHT22;68389;44.716;37.756;2023-04-06T00:58:35;22.49;55.94
78988;DHT22;68389;44.716;37.756;2023-04-06T00:59:39;22.49;55.81
78988;DHT22;68389;44.716;37.756;2023-04-06T01:00:41;22.49;55.65
78988;DHT22;68389;44.716;37.756;2023-04-06T01:01:43;22.50;55.61
78988;DHT22;68389;44.716;37.756;2023-04-06T01:02:44;22.48;55.76
78988;DHT22;68389;44.716;37.756;2023-04-06T01:03:49;22.49;55.64
78988;DHT22;68389;44.716;37.756;2023-04-06T01:04:52;22.48;55.65
78988;DHT22;68389;44.716;37.756;2023-04-06T01:05:54;22.49;55.78
78988;DHT22;68389;44.716;37.756;2023-04-06T01:06:59;22.48;55.71
78988;DHT22;68389;44.716;37.756;2023-04-06T01:08:00;22.47;55.68
78988;DHT22;68389;44.716;37.756;2023-04-06T01:09:02;22.48;55.52
78988;DHT22;68389;44.716;37.756;2023-04-06T01:10:03;22.48;55.70
78988;DHT22;68389;44.716;37.756;2023-04-06T01:11:05;22.48;55.65
78988;DHT22;68389;44.716;37.756;2023-04-06T01:12:06;22.48;55.52
78988;DHT22;68389;44.716;37.756;2023-04-06T01:13:07;22.47;55.73
78988;DHT22;68389;44.716;37.756;2023-04-06T01:14:09;22.47;55.65
78988;DHT22;68389;44.716;37.756;2023-04-06T01:15:11;22.48;55.61
78988;DHT22;68389;44.716;37.756;2023-04-06T01:16:13;22.47;55.68
78988;DHT22;68389;44.716;37.756;2023-04-06T01:17:14;22.48;55.53
78988;DHT22;68389;44.716;37.756;2023-04-06T01:18:16;22.47;55.62
78988;DHT22;68389;44.716;37.756;2023-04-06T01:19:17;22.47;55.53
78988;DHT22;68389;44.716;37.756;2023-04-06T01:20:19;22.48;55.66
78988;DHT22;68389;44.716;37.756;2023-04-06T01:21:21;22.47;55.60
78988;DHT22;68389;44.716;37.756;2023-04-06T01:22:24;22.47;55.61
78988;DHT22;68389;44.716;37.756;2023-04-06T01:23:25;22.47;55.57
78988;DHT22;68389;44.716;37.756;2023-04-06T01:24:27;22.48;55.53
78988;DHT22;68389;44.716;37.756;2023-04-06T01:25:28;22.47;55.55
78988;DHT22;68389;44.716;37.756;2023-04-06T01:26:30;22.48;55.49
78988;DHT22;68389;44.716;37.756;2023-04-06T01:27:31;22.47;55.52
78988;DHT22;68389;44.716;37.756;2023-04-06T01:28:33;22.46;55.57
78988;DHT22;68389;44.716;37.756;2023-04-06T01:29:34;22.46;55.49
78988;DHT22;68389;44.716;37.756;2023-04-06T01:30:36;22.46;55.53
78988;DHT22;68389;44.716;37.756;2023-04-06T01:31:38;22.46;55.66
78988;DHT22;68389;44.716;37.756;2023-04-06T01:32:39;22.46;55.50
78988;DHT22;68389;44.716;37.756;2023-04-06T01:33:40;22.46;55.69
78988;DHT22;68389;44.716;37.756;2023-04-06T01:34:41;22.46;55.58
78988;DHT22;68389;44.716;37.756;2023-04-06T01:35:43;22.43;55.56
78988;DHT22;68389;44.716;37.756;2023-04-06T01:36:44;22.44;55.55
78988;DHT22;68389;44.716;37.756;2023-04-06T01:37:45;22.47;55.54
78988;DHT22;68389;44.716;37.756;2023-04-06T01:38:47;22.44;55.62
78988;DHT22;68389;44.716;37.756;2023-04-06T01:39:48;22.46;55.57
78988;DHT22;68389;44.716;37.756;2023-04-06T01:40:49;22.44;55.47
78988;DHT22;68389;44.716;37.756;2023-04-06T01:41:51;22.43;55.51
78988;DHT22;68389;44.716;37.756;2023-04-06T01:42:52;22.44;55.55
78988;DHT22;68389;44.716;37.756;2023-04-06T01:43:53;22.44;55.50
78988;DHT22;68389;44.716;37.756;2023-04-06T01:44:55;22.44;55.61
78988;DHT22;68389;44.716;37.756;2023-04-06T01:45:56;22.47;55.39
78988;DHT22;68389;44.716;37.756;2023-04-06T01:46:58;22.44;55.49
78988;DHT22;68389;44.716;37.756;2023-04-06T01:47:59;22.43;55.43
78988;DHT22;68389;44.716;37.756;2023-04-06T01:49:00;22.44;55.52
78988;DHT22;68389;44.716;37.756;2023-04-06T01:50:02;22.43;55.53
78988;DHT22;68389;44.716;37.756;2023-04-06T01:51:06;22.46;55.36
78988;DHT22;68389;44.716;37.756;2023-04-06T01:52:07;22.43;55.40
78988;DHT22;68389;44.716;37.756;2023-04-06T01:53:09;22.44;55.50
78988;DHT22;68389;44.716;37.756;2023-04-06T01:54:10;22.44;55.58
78988;DHT22;68389;44.716;37.756;2023-04-06T01:55:11;22.46;55.46
78988;DHT22;68389;44.716;37.756;2023-04-06T01:56:13;22.44;55.39
78988;DHT22;68389;44.716;37.756;2023-04-06T01:57:14;22.43;55.41
78988;DHT22;68389;44.716;37.756;2023-04-06T01:58:15;22.44;55.46
78988;DHT22;68389;44.716;37.756;2023-04-06T01:59:17;22.44;55.50
78988;DHT22;68389;44.716;37.756;2023-04-06T02:00:18;22.43;55.29
78988;DHT22;68389;44.716;37.756;2023-04-06T02:01:19;22.44;55.37
78988;DHT22;68389;44.716;37.756;2023-04-06T02:02:20;22.44;55.34
78988;DHT22;68389;44.716;37.756;2023-04-06T02:03:22;22.43;55.23
78988;DHT22;68389;44.716;37.756;2023-04-06T02:04:23;22.44;55.39
78988;DHT22;68389;44.716;37.756;2023-04-06T02:05:25;22.43;55.61
78988;DHT22;68389;44.716;37.756;2023-04-06T02:06:26;22.43;55.41
78988;DHT22;68389;44.716;37.756;2023-04-06T02:07:28;22.42;55.57
78988;DHT22;68389;44.716;37.756;2023-04-06T02:08:29;22.42;55.51
78988;DHT22;68389;44.716;37.756;2023-04-06T02:09:30;22.42;55.46
78988;DHT22;68389;44.716;37.756;2023-04-06T02:10:33;22.41;55.43
78988;DHT22;68389;44.716;37.756;2023-04-06T02:11:34;22.42;55.45
78988;DHT22;68389;44.716;37.756;2023-04-06T02:12:36;22.42;55.44
78988;DHT22;68389;44.716;37.756;2023-04-06T02:13:37;22.41;55.46
78988;DHT22;68389;44.716;37.756;2023-04-06T02:14:39;22.42;55.46
78988;DHT22;68389;44.716;37.756;2023-04-06T02:15:40;22.43;55.49
78988;DHT22;68389;44.716;37.756;2023-04-06T02:16:41;22.43;55.26
78988;DHT22;68389;44.716;37.756;2023-04-06T02:17:42;22.43;55.40
78988;DHT22;68389;44.716;37.756;2023-04-06T02:18:44;22.41;55.51
78988;DHT22;68389;44.716;37.756;2023-04-06T02:19:46;22.42;55.38
78988;DHT22;68389;44.716;37.756;2023-04-06T02:20:47;22.42;55.45
78988;DHT22;68389;44.716;37.756;2023-04-06T02:21:48;22.41;55.40
78988;DHT22;68389;44.716;37.756;2023-04-06T02:22:50;22.42;55.43
78988;DHT22;68389;44.716;37.756;2023-04-06T02:23:51;22.42;55.38
78988;DHT22;68389;44.716;37.756;2023-04-06T02:24:52;22.41;55.36
78988;DHT22;68389;44.716;37.756;2023-04-06T02:25:53;22.42;55.49
78988;DHT22;68389;44.716;37.756;2023-04-06T02:26:55;22.41;55.42
78988;DHT22;68389;44.716;37.756;2023-04-06T02:27:56;22.42;55.25
78988;DHT22;68389;44.716;37.756;2023-04-06T02:28:57;22.42;55.42
78988;DHT22;68389;44.716;37.756;2023-04-06T02:29:59;22.41;55.36
78988;DHT22;68389;44.716;37.756;2023-04-06T02:31:00;22.42;55.11
78988;DHT22;68389;44.716;37.756;2023-04-06T02:32:01;22.42;55.20
78988;DHT22;68389;44.716;37.756;2023-04-06T02:33:03;22.42;55.48
78988;DHT22;68389;44.716;37.756;2023-04-06T02:34:04;22.42;55.36
78988;DHT22;68389;44.716;37.756;2023-04-06T02:35:05;22.41;55.25
78988;DHT22;68389;44.716;37.756;2023-04-06T02:36:07;22.42;55.36
78988;DHT22;68389;44.716;37.756;2023-04-06T02:37:08;22.42;55.26
78988;DHT22;68389;44.716;37.756;2023-04-06T02:38:10;22.41;55.32
78988;DHT22;68389;44.716;37.756;2023-04-06T02:39:12;22.42;55.38
78988;DHT22;68389;44.716;37.756;2023-04-06T02:40:14;22.43;55.40
78988;DHT22;68389;44.716;37.756;2023-04-06T02:41:15;22.42;55.38
78988;DHT22;68389;44.716;37.756;2023-04-06T02:42:16;22.41;55.42
78988;DHT22;68389;44.716;37.756;2023-04-06T02:43:18;22.41;55.24
78988;DHT22;68389;44.716;37.756;2023-04-06T02:44:20;22.40;55.41
78988;DHT22;68389;44.716;37.756;2023-04-06T02:45:21;22.41;55.42
78988;DHT22;68389;44.716;37.756;2023-04-06T02:46:22;22.40;55.45
78988;DHT22;68389;44.716;37.756;2023-04-06T02:47:24;22.40;55.45
78988;DHT22;68389;44.716;37.756;2023-04-06T02:48:25;22.39;55.35
78988;DHT22;68389;44.716;37.756;2023-04-06T02:49:26;22.41;55.42
78988;DHT22;68389;44.716;37.756;2023-04-06T02:50:27;22.40;55.36
78988;DHT22;68389;44.716;37.756;2023-04-06T02:51:29;22.39;55.48
78988;DHT22;68389;44.716;37.756;2023-04-06T02:52:30;22.40;55.35
78988;DHT22;68389;44.716;37.756;2023-04-06T02:53:32;22.40;55.31
78988;DHT22;68389;44.716;37.756;2023-04-06T02:54:33;22.40;55.29
78988;DHT22;68389;44.716;37.756;2023-04-06T02:55:34;22.41;55.44
78988;DHT22;68389;44.716;37.756;2023-04-06T02:56:36;22.40;55.38
78988;DHT22;68389;44.716;37.756;2023-04-06T02:57:37;22.40;55.25
78988;DHT22;68389;44.716;37.756;2023-04-06T02:58:38;22.41;55.42
78988;DHT22;68389;44.716;37.756;2023-04-06T02:59:40;22.40;55.27
78988;DHT22;68389;44.716;37.756;2023-04-06T03:00:41;22.40;55.10
78988;DHT22;68389;44.716;37.756;2023-04-06T03:01:42;22.40;55.24
78988;DHT22;68389;44.716;37.756;2023-04-06T03:02:44;22.39;55.20
78988;DHT22;68389;44.716;37.756;2023-04-06T03:03:45;22.41;55.31
78988;DHT22;68389;44.716;37.756;2023-04-06T03:04:47;22.40;55.26
78988;DHT22;68389;44.716;37.756;2023-04-06T03:05:48;22.40;55.23
78988;DHT22;68389;44.716;37.756;2023-04-06T03:06:49;22.40;55.23
78988;DHT22;68389;44.716;37.756;2023-04-06T03:07:51;22.40;55.32
78988;DHT22;68389;44.716;37.756;2023-04-06T03:08:52;22.40;55.29
78988;DHT22;68389;44.716;37.756;2023-04-06T03:09:53;22.39;55.40
78988;DHT22;68389;44.716;37.756;2023-04-06T03:10:54;22.40;55.16
78988;DHT22;68389;44.716;37.756;2023-04-06T03:11:56;22.39;55.27
78988;DHT22;68389;44.716;37.756;2023-04-06T03:12:58;22.40;55.34
78988;DHT22;68389;44.716;37.756;2023-04-06T03:13:59;22.39;55.20
78988;DHT22;68389;44.716;37.756;2023-04-06T03:15:00;22.39;55.13
78988;DHT22;68389;44.716;37.756;2023-04-06T03:16:02;22.39;55.37
78988;DHT22;68389;44.716;37.756;2023-04-06T03:17:03;22.39;55.24
78988;DHT22;68389;44.716;37.756;2023-04-06T03:18:04;22.40;55.11
78988;DHT22;68389;44.716;37.756;2023-04-06T03:19:06;22.38;55.31
78988;DHT22;68389;44.716;37.756;2023-04-06T03:20:07;22.39;55.23
78988;DHT22;68389;44.716;37.756;2023-04-06T03:21:09;22.39;55.10
78988;DHT22;68389;44.716;37.756;2023-04-06T03:22:10;22.39;55.10
78988;DHT22;68389;44.716;37.756;2023-04-06T03:23:11;22.39;55.28
78988;DHT22;68389;44.716;37.756;2023-04-06T03:24:12;22.38;55.38
78988;DHT22;68389;44.716;37.756;2023-04-06T03:25:14;22.39;55.22
78988;DHT22;68389;44.716;37.756;2023-04-06T03:26:16;22.39;55.33
78988;DHT22;68389;44.716;37.756;2023-04-06T03:27:17;22.39;55.24
78988;DHT22;68389;44.716;37.756;2023-04-06T03:28:19;22.39;55.28
78988;DHT22;68389;44.716;37.756;2023-04-06T03:29:20;22.40;55.26
78988;DHT22;68389;44.716;37.756;2023-04-06T03:30:21;22.40;55.16
78988;DHT22;68389;44.716;37.756;2023-04-06T03:31:23;22.39;55.71
78988;DHT22;68389;44.716;37.756;2023-04-06T03:32:24;22.40;55.23
78988;DHT22;68389;44.716;37.756;2023-04-06T03:33:25;22.39;55.29
78988;DHT22;68389;44.716;37.756;2023-04-06T03:34:29;22.40;55.17
78988;DHT22;68389;44.716;37.756;2023-04-06T03:35:31;22.39;55.39
78988;DHT22;68389;44.716;37.756;2023-04-06T03:36:33;22.39;55.23
78988;DHT22;68389;44.716;37.756;2023-04-06T03:37:35;22.39;55.26
78988;DHT22;68389;44.716;37.756;2023-04-06T03:38:36;22.39;55.30
78988;DHT22;68389;44.716;37.756;2023-04-06T03:39:37;22.39;55.25
78988;DHT22;68389;44.716;37.756;2023-04-06T03:40:38;22.38;55.08
78988;DHT22;68389;44.716;37.756;2023-04-06T03:41:40;22.40;55.04
78988;DHT22;68389;44.716;37.756;2023-04-06T03:42:41;22.38;55.42
78988;DHT22;68389;44.716;37.756;2023-04-06T03:43:43;22.38;55.07
78988;DHT22;68389;44.716;37.756;2023-04-06T03:44:44;22.37;54.91
78988;DHT22;68389;44.716;37.756;2023-04-06T03:45:46;22.38;54.91
78988;DHT22;68389;44.716;37.756;2023-04-06T03:46:47;22.38;55.12
78988;DHT22;68389;44.716;37.756;2023-04-06T03:47:48;22.38;55.06
78988;DHT22;68389;44.716;37.756;2023-04-06T03:48:49;22.38;55.28
78988;DHT22;68389;44.716;37.756;2023-04-06T03:49:51;22.38;55.16
78988;DHT22;68389;44.716;37.756;2023-04-06T03:50:52;22.37;55.39
78988;DHT22;68389;44.716;37.756;2023-04-06T03:51:53;22.39;55.52
78988;DHT22;68389;44.716;37.756;2023-04-06T03:52:55;22.41;56.32
78988;DHT22;68389;44.716;37.756;2023-04-06T03:53:56;22.47;57.26
78988;DHT22;68389;44.716;37.756;2023-04-06T03:54:57;22.49;56.67
78988;DHT22;68389;44.716;37.756;2023-04-06T03:55:59;22.53;56.09
78988;DHT22;68389;44.716;37.756;2023-04-06T03:57:00;22.54;56.27
78988;DHT22;68389;44.716;37.756;2023-04-06T03:58:02;22.57;55.84
78988;DHT22;68389;44.716;37.756;2023-04-06T03:59:03;22.61;56.23
78988;DHT22;68389;44.716;37.756;2023-04-06T04:00:05;22.64;56.71
78988;DHT22;68389;44.716;37.756;2023-04-06T04:01:07;22.68;55.50
78988;DHT22;68389;44.716;37.756;2023-04-06T04:02:08;22.69;56.29
78988;DHT22;68389;44.716;37.756;2023-04-06T04:03:09;22.75;56.29
78988;DHT22;68389;44.716;37.756;2023-04-06T04:04:11;22.78;56.12
78988;DHT22;68389;44.716;37.756;2023-04-06T04:05:12;22.81;56.13
78988;DHT22;68389;44.716;37.756;2023-04-06T04:06:13;22.84;57.60
78988;DHT22;68389;44.716;37.756;2023-04-06T04:07:15;22.87;56.90
78988;DHT22;68389;44.716;37.756;2023-04-06T04:08:16;22.93;55.27
78988;DHT22;68389;44.716;37.756;2023-04-06T04:09:17;22.97;55.68
78988;DHT22;68389;44.716;37.756;2023-04-06T04:10:19;22.99;55.30
78988;DHT22;68389;44.716;37.756;2023-04-06T04:11:20;23.01;55.04
78988;DHT22;68389;44.716;37.756;2023-04-06T04:12:21;23.02;54.87
78988;DHT22;68389;44.716;37.756;2023-04-06T04:13:23;23.01;55.01
78988;DHT22;68389;44.716;37.756;2023-04-06T04:14:24;23.02;54.91
78988;DHT22;68389;44.716;37.756;2023-04-06T04:15:26;23.02;54.82
78988;DHT22;68389;44.716;37.756;2023-04-06T04:16:27;23.01;54.92
78988;DHT22;68389;44.716;37.756;2023-04-06T04:17:29;23.02;54.88
78988;DHT22;68389;44.716;37.756;2023-04-06T04:18:30;23.03;57.96
78988;DHT22;68389;44.716;37.756;2023-04-06T04:19:31;23.05;55.68
78988;DHT22;68389;44.716;37.756;2023-04-06T04:20:33;23.10;54.98
78988;DHT22;68389;44.716;37.756;2023-04-06T04:21:45;23.13;57.81
78988;DHT22;68389;44.716;37.756;2023-04-06T04:22:47;23.17;55.16
78988;DHT22;68389;44.716;37.756;2023-04-06T04:23:48;23.23;56.76
78988;DHT22;68389;44.716;37.756;2023-04-06T04:24:49;23.25;54.68
78988;DHT22;68389;44.716;37.756;2023-04-06T04:25:51;23.23;54.30
78988;DHT22;68389;44.716;37.756;2023-04-06T04:26:52;23.21;53.78
78988;DHT22;68389;44.716;37.756;2023-04-06T04:27:54;23.21;53.72
78988;DHT22;68389;44.716;37.756;2023-04-06T04:28:55;23.16;53.56
78988;DHT22;68389;44.716;37.756;2023-04-06T04:29:57;23.15;53.97
78988;DHT22;68389;44.716;37.756;2023-04-06T04:30:58;23.13;54.36
78988;DHT22;68389;44.716;37.756;2023-04-06T04:31:59;23.10;54.13
78988;DHT22;68389;44.716;37.756;2023-04-06T04:33:00;23.10;54.46
78988;DHT22;68389;44.716;37.756;2023-04-06T04:34:02;23.08;54.38
78988;DHT22;68389;44.716;37.756;2023-04-06T04:35:03;23.06;54.48
78988;DHT22;68389;44.716;37.756;2023-04-06T04:36:05;23.06;54.45
78988;DHT22;68389;44.716;37.756;2023-04-06T04:37:06;23.03;54.33
78988;DHT22;68389;44.716;37.756;2023-04-06T04:38:07;23.01;54.56
78988;DHT22;68389;44.716;37.756;2023-04-06T04:39:09;22.99;54.68
78988;DHT22;68389;44.716;37.756;2023-04-06T04:40:11;22.98;54.49
78988;DHT22;68389;44.716;37.756;2023-04-06T04:41:12;22.97;54.49
78988;DHT22;68389;44.716;37.756;2023-04-06T04:42:14;22.96;54.61
78988;DHT22;68389;44.716;37.756;2023-04-06T04:43:15;22.95;54.65
78988;DHT22;68389;44.716;37.756;2023-04-06T04:44:16;22.94;54.53
78988;DHT22;68389;44.716;37.756;2023-04-06T04:45:17;22.93;54.62
78988;DHT22;68389;44.716;37.756;2023-04-06T04:46:19;22.91;54.72
78988;DHT22;68389;44.716;37.756;2023-04-06T04:47:20;22.88;54.68
78988;DHT22;68389;44.716;37.756;2023-04-06T04:48:21;22.87;54.77
78988;DHT22;68389;44.716;37.756;2023-04-06T04:49:23;22.85;54.74
78988;DHT22;68389;44.716;37.756;2023-04-06T04:50:24;22.83;54.84
78988;DHT22;68389;44.716;37.756;2023-04-06T04:51:25;22.83;54.80
78988;DHT22;68389;44.716;37.756;2023-04-06T04:52:27;22.81;54.84
78988;DHT22;68389;44.716;37.756;2023-04-06T04:53:28;22.79;54.80
78988;DHT22;68389;44.716;37.756;2023-04-06T04:54:29;22.78;54.82
78988;DHT22;68389;44.716;37.756;2023-04-06T04:55:31;22.78;54.79
78988;DHT22;68389;44.716;37.756;2023-04-06T04:56:32;22.77;54.83
78988;DHT22;68389;44.716;37.756;2023-04-06T04:57:33;22.76;54.86
78988;DHT22;68389;44.716;37.756;2023-04-06T04:58:35;22.76;54.93
78988;DHT22;68389;44.716;37.756;2023-04-06T04:59:36;22.75;54.86
78988;DHT22;68389;44.716;37.756;2023-04-06T05:00:38;22.75;54.97
78988;DHT22;68389;44.716;37.756;2023-04-06T05:01:39;22.73;54.96
78988;DHT22;68389;44.716;37.756;2023-04-06T05:02:40;22.71;54.92
78988;DHT22;68389;44.716;37.756;2023-04-06T05:03:42;22.70;55.16
78988;DHT22;68389;44.716;37.756;2023-04-06T05:04:47;22.69;55.03
78988;DHT22;68389;44.716;37.756;2023-04-06T05:05:48;22.68;55.12
78988;DHT22;68389;44.716;37.756;2023-04-06T05:06:50;22.67;55.08
78988;DHT22;68389;44.716;37.756;2023-04-06T05:07:51;22.66;55.00
78988;DHT22;68389;44.716;37.756;2023-04-06T05:08:52;22.66;55.06
78988;DHT22;68389;44.716;37.756;2023-04-06T05:09:54;22.65;55.23
78988;DHT22;68389;44.716;37.756;2023-04-06T05:10:55;22.65;54.99
78988;DHT22;68389;44.716;37.756;2023-04-06T05:11:57;22.64;55.33
78988;DHT22;68389;44.716;37.756;2023-04-06T05:12:59;22.63;55.21
78988;DHT22;68389;44.716;37.756;2023-04-06T05:14:00;22.64;55.26
78988;DHT22;68389;44.716;37.756;2023-04-06T05:15:02;22.62;55.29
78988;DHT22;68389;44.716;37.756;2023-04-06T05:16:03;22.63;55.45
78988;DHT22;68389;44.716;37.756;2023-04-06T05:17:04;22.62;55.33
78988;DHT22;68389;44.716;37.756;2023-04-06T05:18:07;22.61;55.45
78988;DHT22;68389;44.716;37.756;2023-04-06T05:19:08;22.62;55.20
78988;DHT22;68389;44.716;37.756;2023-04-06T05:20:12;22.61;55.06
78988;DHT22;68389;44.716;37.756;2023-04-06T05:21:13;22.61;55.38
78988;DHT22;68389;44.716;37.756;2023-04-06T05:22:15;22.62;55.39
78988;DHT22;68389;44.716;37.756;2023-04-06T05:23:18;22.60;55.08
78988;DHT22;68389;44.716;37.756;2023-04-06T05:24:19;22.60;55.48
78988;DHT22;68389;44.716;37.756;2023-04-06T05:25:20;22.57;55.42
78988;DHT22;68389;44.716;37.756;2023-04-06T05:26:22;22.58;55.23
78988;DHT22;68389;44.716;37.756;2023-04-06T05:27:23;22.56;55.38
78988;DHT22;68389;44.716;37.756;2023-04-06T05:28:24;22.55;55.31
78988;DHT22;68389;44.716;37.756;2023-04-06T05:29:26;22.55;55.21
78988;DHT22;68389;44.716;37.756;2023-04-06T05:30:27;22.55;55.49
78988;DHT22;68389;44.716;37.756;2023-04-06T05:31:29;22.53;55.29
78988;DHT22;68389;44.716;37.756;2023-04-06T05:32:30;22.55;55.45
78988;DHT22;68389;44.716;37.756;2023-04-06T05:33:31;22.54;55.39
78988;DHT22;68389;44.716;37.756;2023-04-06T05:34:33;22.54;55.13
78988;DHT22;68389;44.716;37.756;2023-04-06T05:35:34;22.53;55.29
78988;DHT22;68389;44.716;37.756;2023-04-06T05:36:36;22.52;55.55
78988;DHT22;68389;44.716;37.756;2023-04-06T05:37:38;22.51;55.44
78988;DHT22;68389;44.716;37.756;2023-04-06T05:38:39;22.49;55.24
78988;DHT22;68389;44.716;37.756;2023-04-06T05:39:40;22.49;55.41
78988;DHT22;68389;44.716;37.756;2023-04-06T05:40:42;22.50;55.46
78988;DHT22;68389;44.716;37.756;2023-04-06T05:41:44;22.49;55.55
78988;DHT22;68389;44.716;37.756;2023-04-06T05:42:46;22.48;55.58
78988;DHT22;68389;44.716;37.756;2023-04-06T05:43:47;22.48;55.34
78988;DHT22;68389;44.716;37.756;2023-04-06T05:44:49;22.47;55.52
78988;DHT22;68389;44.716;37.756;2023-04-06T05:45:50;22.48;55.14
78988;DHT22;68389;44.716;37.756;2023-04-06T05:46:51;22.46;55.29
78988;DHT22;68389;44.716;37.756;2023-04-06T05:47:53;22.47;55.52
78988;DHT22;68389;44.716;37.756;2023-04-06T05:48:54;22.46;55.45
78988;DHT22;68389;44.716;37.756;2023-04-06T05:49:55;22.46;55.58
78988;DHT22;68389;44.716;37.756;2023-04-06T05:50:57;22.43;55.36
78988;DHT22;68389;44.716;37.756;2023-04-06T05:51:58;22.43;55.58
78988;DHT22;68389;44.716;37.756;2023-04-06T05:52:59;22.43;55.56
78988;DHT22;68389;44.716;37.756;2023-04-06T05:54:01;22.43;55.55
78988;DHT22;68389;44.716;37.756;2023-04-06T05:55:03;22.42;55.43
78988;DHT22;68389;44.716;37.756;2023-04-06T05:56:04;22.42;55.57
78988;DHT22;68389;44.716;37.756;2023-04-06T05:57:06;22.42;55.55
78988;DHT22;68389;44.716;37.756;2023-04-06T05:58:07;22.43;55.55
78988;DHT22;68389;44.716;37.756;2023-04-06T05:59:08;22.41;55.55
78988;DHT22;68389;44.716;37.756;2023-04-06T06:00:10;22.40;55.35
78988;DHT22;68389;44.716;37.756;2023-04-06T06:01:12;22.40;55.30
78988;DHT22;68389;44.716;37.756;2023-04-06T06:02:13;22.40;55.50
78988;DHT22;68389;44.716;37.756;2023-04-06T06:03:15;22.39;55.58
78988;DHT22;68389;44.716;37.756;2023-04-06T06:04:16;22.40;55.58
78988;DHT22;68389;44.716;37.756;2023-04-06T06:05:17;22.40;55.39
78988;DHT22;68389;44.716;37.756;2023-04-06T06:06:18;22.39;55.57
78988;DHT22;68389;44.716;37.756;2023-04-06T06:07:20;22.38;55.60
78988;DHT22;68389;44.716;37.756;2023-04-06T06:08:21;22.37;55.55
78988;DHT22;68389;44.716;37.756;2023-04-06T06:09:22;22.38;55.39
78988;DHT22;68389;44.716;37.756;2023-04-06T06:10:24;22.37;55.65
78988;DHT22;68389;44.716;37.756;2023-04-06T06:11:26;22.38;55.61
78988;DHT22;68389;44.716;37.756;2023-04-06T06:12:27;22.37;55.39
78988;DHT22;68389;44.716;37.756;2023-04-06T06:13:28;22.37;55.53
78988;DHT22;68389;44.716;37.756;2023-04-06T06:14:30;22.36;55.49
78988;DHT22;68389;44.716;37.756;2023-04-06T06:15:31;22.36;55.51
78988;DHT22;68389;44.716;37.756;2023-04-06T06:16:33;22.35;55.61
78988;DHT22;68389;44.716;37.756;2023-04-06T06:17:34;22.35;55.59
78988;DHT22;68389;44.716;37.756;2023-04-06T06:18:35;22.34;55.64
78988;DHT22;68389;44.716;37.756;2023-04-06T06:19:37;22.34;55.55
78988;DHT22;68389;44.716;37.756;2023-04-06T06:20:39;22.33;55.50
78988;DHT22;68389;44.716;37.756;2023-04-06T06:21:40;22.34;55.54